createdAt,value
2022-09-11T00:01:40.561Z,12.00
2022-09-11T00:04:10.346Z,12.40
2022-09-11T00:06:38.818Z,13.00
2022-09-11T00:09:07.786Z,11.70
2022-09-11T00:11:41.439Z,10.80
2022-09-11T00:14:12.312Z,9.30
2022-09-11T00:16:44.936Z,10.30
2022-09-11T00:19:19.348Z,9.80
2022-09-11T00:21:50.062Z,10.00
2022-09-11T00:24:18.111Z,9.60
2022-09-11T00:26:47.932Z,9.30
2022-09-11T00:29:15.768Z,9.10
2022-09-11T00:31:43.587Z,9.80
2022-09-11T00:34:11.524Z,10.50
2022-09-11T00:36:41.678Z,17.20
2022-09-11T00:39:12.332Z,15.70
2022-09-11T00:41:44.890Z,13.50
2022-09-11T00:46:43.735Z,15.10
2022-09-11T00:49:54.466Z,13.50
2022-09-11T00:52:29.374Z,10.90
2022-09-11T00:55:15.072Z,9.90
2022-09-11T00:57:51.779Z,8.90
2022-09-11T01:00:20.972Z,9.20
2022-09-11T01:02:51.633Z,8.60
2022-09-11T01:05:20.043Z,8.90
2022-09-11T01:07:50.329Z,8.10
2022-09-11T01:10:19.014Z,9.10
2022-09-11T01:13:17.692Z,9.80
2022-09-11T01:16:13.692Z,9.40
2022-09-11T01:19:10.437Z,9.10
2022-09-11T01:22:07.685Z,8.30
2022-09-11T01:25:17.510Z,8.70
2022-09-11T01:27:57.566Z,8.10
2022-09-11T01:30:37.633Z,8.80
2022-09-11T01:33:31.291Z,9.20
2022-09-11T01:36:22.896Z,8.30
2022-09-11T01:38:58.428Z,9.00
2022-09-11T01:41:46.991Z,8.70
2022-09-11T01:44:30.508Z,8.30
2022-09-11T01:46:58.780Z,8.00
2022-09-11T01:49:38.956Z,8.30
2022-09-11T01:52:12.983Z,7.70
2022-09-11T01:54:56.545Z,7.30
2022-09-11T01:57:35.741Z,6.90
2022-09-11T02:00:09.449Z,7.80
2022-09-11T02:02:45.290Z,6.80
2022-09-11T02:05:23.230Z,7.40
2022-09-11T02:08:06.706Z,7.80
2022-09-11T02:10:45.527Z,8.00
2022-09-11T02:13:24.048Z,6.90
2022-09-11T02:16:03.937Z,6.80
2022-09-11T02:19:04.391Z,7.20
2022-09-11T02:21:33.423Z,7.50
2022-09-11T02:24:02.323Z,6.80
2022-09-11T02:26:34.000Z,7.40
2022-09-11T02:29:01.916Z,8.70
2022-09-11T02:31:29.830Z,8.00
2022-09-11T02:33:57.981Z,7.40
2022-09-11T02:36:31.802Z,8.60
2022-09-11T02:39:35.418Z,9.60
2022-09-11T02:42:10.705Z,8.60
2022-09-11T02:45:29.162Z,9.10
2022-09-11T02:48:36.371Z,8.70
2022-09-11T02:51:18.106Z,9.70
2022-09-11T02:54:10.816Z,8.70
2022-09-11T02:56:50.979Z,9.40
2022-09-11T02:59:32.484Z,9.30
2022-09-11T03:02:02.306Z,9.20
2022-09-11T03:04:31.450Z,10.20
2022-09-11T03:06:59.666Z,10.40
2022-09-11T03:09:27.513Z,9.80
2022-09-11T03:11:55.667Z,10.80
2022-09-11T03:14:23.549Z,11.60
2022-09-11T03:16:51.197Z,10.60
2022-09-11T03:19:18.986Z,11.60
2022-09-11T03:21:46.789Z,11.50
2022-09-11T03:24:14.550Z,12.60
2022-09-11T03:26:42.277Z,12.50
2022-09-11T03:29:10.047Z,12.00
2022-09-11T03:31:39.444Z,13.10
2022-09-11T03:34:07.551Z,13.30
2022-09-11T03:36:35.391Z,13.60
2022-09-11T03:39:04.192Z,14.70
2022-09-11T03:41:32.728Z,14.00
2022-09-11T03:44:00.556Z,14.00
2022-09-11T03:46:28.280Z,16.30
2022-09-11T03:48:56.085Z,13.30
2022-09-11T03:51:23.849Z,12.90
2022-09-11T03:53:51.502Z,12.70
2022-09-11T03:56:19.238Z,12.70
2022-09-11T03:58:48.182Z,12.80
2022-09-11T04:01:19.045Z,13.10
2022-09-11T04:03:46.983Z,13.60
2022-09-11T04:06:14.796Z,14.60
2022-09-11T04:08:42.703Z,14.90
2022-09-11T04:11:11.759Z,16.00
2022-09-11T04:13:42.298Z,14.60
2022-09-11T04:16:17.225Z,15.40
2022-09-11T04:18:49.651Z,15.00
2022-09-11T04:21:18.832Z,14.90
2022-09-11T04:23:53.437Z,14.70
2022-09-11T04:26:25.004Z,16.20
2022-09-11T04:28:53.087Z,17.20
2022-09-11T04:31:22.645Z,15.30
2022-09-11T04:33:50.507Z,16.10
2022-09-11T04:36:19.698Z,16.80
2022-09-11T04:38:48.956Z,17.50
2022-09-11T04:41:16.855Z,16.90
2022-09-11T04:43:45.211Z,16.10
2022-09-11T04:46:16.373Z,15.10
2022-09-11T04:48:49.333Z,17.70
2022-09-11T04:51:43.628Z,15.70
2022-09-11T04:54:18.007Z,16.70
2022-09-11T04:56:45.697Z,18.00
2022-09-11T04:59:18.110Z,18.30
2022-09-11T05:01:46.853Z,17.30
2022-09-11T05:04:16.610Z,16.90
2022-09-11T05:06:48.317Z,16.40
2022-09-11T05:09:17.875Z,15.40
2022-09-11T05:11:48.863Z,16.50
2022-09-11T05:14:18.543Z,17.20
2022-09-11T05:16:46.413Z,16.40
2022-09-11T05:19:14.222Z,15.80
2022-09-11T05:21:42.483Z,16.30
2022-09-11T05:24:10.299Z,16.50
2022-09-11T05:26:38.263Z,15.30
2022-09-11T05:29:10.999Z,14.90
2022-09-11T05:31:39.528Z,16.20
2022-09-11T05:34:07.800Z,17.30
2022-09-11T05:36:35.995Z,15.50
2022-09-11T05:39:04.532Z,17.10
2022-09-11T05:41:32.367Z,15.70
2022-09-11T05:44:00.213Z,15.00
2022-09-11T05:46:28.507Z,15.70
2022-09-11T05:48:56.213Z,15.40
2022-09-11T05:51:24.104Z,16.40
2022-09-11T05:53:56.770Z,15.10
2022-09-11T05:56:25.891Z,14.80
2022-09-11T05:58:54.003Z,15.00
2022-09-11T06:01:27.629Z,15.50
2022-09-11T06:03:56.736Z,15.60
2022-09-11T06:06:27.009Z,14.30
2022-09-11T06:08:56.112Z,14.90
2022-09-11T06:11:24.070Z,14.90
2022-09-11T06:13:51.965Z,15.70
2022-09-11T06:16:22.442Z,15.50
2022-09-11T06:18:52.204Z,16.40
2022-09-11T06:21:24.022Z,14.80
2022-09-11T06:23:53.189Z,14.70
2022-09-11T06:26:24.959Z,13.50
2022-09-11T06:28:54.114Z,13.20
2022-09-11T06:31:25.638Z,13.70
2022-09-11T06:33:54.071Z,13.10
2022-09-11T06:36:26.668Z,12.20
2022-09-11T06:41:24.709Z,11.50
2022-09-11T06:43:52.823Z,11.00
2022-09-11T06:46:23.547Z,9.50
2022-09-11T06:48:52.292Z,10.80
2022-09-11T06:51:22.556Z,10.60
2022-09-11T06:53:56.331Z,9.70
2022-09-11T06:56:25.054Z,9.00
2022-09-11T06:58:53.025Z,9.00
2022-09-11T07:01:22.342Z,10.00
2022-09-11T07:03:53.517Z,9.00
2022-09-11T07:06:24.956Z,8.80
2022-09-11T07:09:03.657Z,8.30
2022-09-11T07:11:34.513Z,8.80
2022-09-11T07:14:10.727Z,9.10
2022-09-11T07:16:38.799Z,7.60
2022-09-11T07:19:09.614Z,7.90
2022-09-11T07:21:37.392Z,7.00
2022-09-11T07:24:05.476Z,7.50
2022-09-11T07:26:33.204Z,7.90
2022-09-11T07:29:00.985Z,7.00
2022-09-11T07:31:33.185Z,7.50
2022-09-11T07:34:02.859Z,7.00
2022-09-11T07:36:34.472Z,7.40
2022-09-11T07:39:03.640Z,7.20
2022-09-11T07:41:32.150Z,7.10
2022-09-11T07:44:00.345Z,7.00
2022-09-11T07:46:31.370Z,7.10
2022-09-11T07:49:02.192Z,6.70
2022-09-11T07:51:30.071Z,7.70
2022-09-11T07:53:59.531Z,7.60
2022-09-11T07:56:27.723Z,7.60
2022-09-11T07:58:56.098Z,6.30
2022-09-11T08:01:29.990Z,5.70
2022-09-11T08:04:00.962Z,6.20
2022-09-11T08:06:32.176Z,6.10
2022-09-11T08:09:03.189Z,7.90
2022-09-11T08:11:34.892Z,6.10
2022-09-11T08:14:02.933Z,6.70
2022-09-11T08:16:31.512Z,6.00
2022-09-11T08:18:59.418Z,5.60
2022-09-11T08:21:28.003Z,6.40
2022-09-11T08:23:56.241Z,6.20
2022-09-11T08:26:27.495Z,5.90
2022-09-11T08:28:59.989Z,6.10
2022-09-11T08:31:28.990Z,6.00
2022-09-11T08:33:57.238Z,6.10
2022-09-11T08:36:25.812Z,5.90
2022-09-11T08:38:54.345Z,6.10
2022-09-11T08:41:37.468Z,6.10
2022-09-11T08:44:11.125Z,6.30
2022-09-11T08:46:48.008Z,7.50
2022-09-11T08:49:39.616Z,6.90
2022-09-11T08:52:15.625Z,5.70
2022-09-11T08:54:44.141Z,6.10
2022-09-11T08:57:43.615Z,5.80
2022-09-11T09:00:22.433Z,5.50
2022-09-11T09:03:30.561Z,5.60
2022-09-11T09:06:12.604Z,5.30
2022-09-11T09:08:54.946Z,5.20
2022-09-11T09:11:36.187Z,4.90
2022-09-11T09:14:29.377Z,5.60
2022-09-11T09:17:08.497Z,5.10
2022-09-11T09:19:46.637Z,4.80
2022-09-11T09:22:37.768Z,5.20
2022-09-11T09:25:13.012Z,4.60
2022-09-11T09:27:47.272Z,5.40
2022-09-11T09:30:27.394Z,4.50
2022-09-11T09:33:13.074Z,5.20
2022-09-11T09:35:46.186Z,4.80
2022-09-11T09:38:18.712Z,5.10
2022-09-11T09:43:44.355Z,4.20
2022-09-11T09:46:48.741Z,4.10
2022-09-11T09:49:27.414Z,3.60
2022-09-11T09:52:04.230Z,3.20
2022-09-11T09:54:45.300Z,2.80
2022-09-11T09:57:24.764Z,2.40
2022-09-11T10:00:19.877Z,2.80
2022-09-11T10:02:57.490Z,1.40
2022-09-11T10:05:44.643Z,1.50
2022-09-11T10:08:34.069Z,1.90
2022-09-11T10:11:12.266Z,1.80
2022-09-11T10:13:43.298Z,2.30
2022-09-11T10:16:26.043Z,2.10
2022-09-11T10:18:55.968Z,1.70
2022-09-11T10:21:35.880Z,1.80
2022-09-11T10:24:25.355Z,1.40
2022-09-11T10:26:55.894Z,1.60
2022-09-11T10:29:30.163Z,1.40
2022-09-11T10:32:36.180Z,2.30
2022-09-11T10:35:09.779Z,1.50
2022-09-11T10:37:39.216Z,2.20
2022-09-11T10:40:21.029Z,2.00
2022-09-11T10:42:50.417Z,1.50
2022-09-11T10:45:21.935Z,1.50
2022-09-11T10:47:49.982Z,1.60
2022-09-11T10:50:17.945Z,1.50
2022-09-11T10:53:03.634Z,1.70
2022-09-11T10:55:39.175Z,1.60
2022-09-11T10:58:32.707Z,1.80
2022-09-11T11:01:01.538Z,1.50
2022-09-11T11:03:29.727Z,2.20
2022-09-11T11:06:44.199Z,2.60
2022-09-11T11:10:08.774Z,2.70
2022-09-11T11:13:29.974Z,2.30
2022-09-11T11:16:21.279Z,3.40
2022-09-11T11:19:31.068Z,2.70
2022-09-11T11:22:19.203Z,3.10
2022-09-11T11:25:17.632Z,3.30
2022-09-11T11:28:32.128Z,3.30
2022-09-11T11:31:23.683Z,3.20
2022-09-11T11:34:04.113Z,3.30
2022-09-11T11:37:10.949Z,3.10
2022-09-11T11:39:50.808Z,3.50
2022-09-11T11:43:00.021Z,3.60
2022-09-11T11:45:46.171Z,3.30
2022-09-11T11:48:44.756Z,3.00
2022-09-11T11:51:18.543Z,3.50
2022-09-11T11:54:22.011Z,3.50
2022-09-11T11:56:57.856Z,3.80
2022-09-11T11:59:36.925Z,3.50
2022-09-11T12:02:09.808Z,3.20
2022-09-11T12:04:55.932Z,3.10
2022-09-11T12:07:31.177Z,3.50
2022-09-11T12:10:02.130Z,4.30
2022-09-11T12:12:53.005Z,4.10
2022-09-11T12:15:23.998Z,3.70
2022-09-11T12:18:16.221Z,4.20
2022-09-11T12:20:46.083Z,3.80
2022-09-11T12:23:34.111Z,3.70
2022-09-11T12:26:23.356Z,3.70
2022-09-11T12:29:11.859Z,3.90
2022-09-11T12:31:51.633Z,3.20
2022-09-11T12:34:27.136Z,3.40
2022-09-11T12:37:05.352Z,3.50
2022-09-11T12:39:48.263Z,2.90
2022-09-11T12:42:25.549Z,3.20
2022-09-11T12:44:55.273Z,3.20
2022-09-11T12:47:41.234Z,3.80
2022-09-11T12:50:19.267Z,3.50
2022-09-11T12:52:57.802Z,3.30
2022-09-11T12:55:40.125Z,3.70
2022-09-11T12:58:20.417Z,3.40
2022-09-11T13:00:51.077Z,3.60
2022-09-11T13:03:34.392Z,3.20
2022-09-11T13:06:07.700Z,3.50
2022-09-11T13:08:47.790Z,3.40
2022-09-11T13:11:38.104Z,3.50
2022-09-11T13:14:29.236Z,3.70
2022-09-11T13:17:02.712Z,3.80
2022-09-11T13:19:37.760Z,4.00
2022-09-11T13:22:27.940Z,3.80
2022-09-11T13:25:20.632Z,4.00
2022-09-11T13:27:54.782Z,3.70
2022-09-11T13:30:24.839Z,4.30
2022-09-11T13:33:14.621Z,4.00
2022-09-11T13:35:45.389Z,3.70
2022-09-11T13:41:01.030Z,4.10
2022-09-11T13:43:36.087Z,3.70
2022-09-11T13:46:16.223Z,4.00
2022-09-11T13:48:46.634Z,4.00
2022-09-11T13:51:20.959Z,3.90
2022-09-11T13:54:11.811Z,3.90
2022-09-11T13:57:10.679Z,4.70
2022-09-11T13:59:47.680Z,3.90
2022-09-11T14:02:33.708Z,4.00
2022-09-11T14:05:07.488Z,4.10
2022-09-11T14:08:04.967Z,3.90
2022-09-11T14:10:47.254Z,3.90
2022-09-11T14:13:36.465Z,3.50
2022-09-11T14:16:16.322Z,3.80
2022-09-11T14:18:59.782Z,4.00
2022-09-11T14:21:36.966Z,3.60
2022-09-11T14:24:22.363Z,4.20
2022-09-11T14:26:50.792Z,3.60
2022-09-11T14:29:28.647Z,5.30
2022-09-11T14:32:28.234Z,3.50
2022-09-11T14:34:56.483Z,3.30
2022-09-11T14:37:26.532Z,3.70
2022-09-11T14:40:31.692Z,3.00
2022-09-11T14:43:03.009Z,3.00
2022-09-11T14:50:05.653Z,3.40
2022-09-11T14:55:18.790Z,3.70
2022-09-11T14:57:47.535Z,3.60
2022-09-11T15:00:19.098Z,3.20
2022-09-11T15:02:52.265Z,3.30
2022-09-11T15:05:24.708Z,3.00
2022-09-11T15:07:53.170Z,3.20
2022-09-11T15:10:21.203Z,2.80
2022-09-11T15:12:49.252Z,3.50
2022-09-11T15:15:17.798Z,3.20
2022-09-11T15:17:46.373Z,2.80
2022-09-11T15:20:14.244Z,3.10
2022-09-11T15:22:42.085Z,3.10
2022-09-11T15:25:10.252Z,3.20
2022-09-11T15:27:41.391Z,3.30
2022-09-11T15:30:10.246Z,2.80
2022-09-11T15:32:38.514Z,3.40
2022-09-11T15:35:08.057Z,2.70
2022-09-11T15:37:36.042Z,2.50
2022-09-11T15:40:04.648Z,2.50
2022-09-11T15:42:39.520Z,2.60
2022-09-11T15:45:09.163Z,2.50
2022-09-11T15:47:37.174Z,2.60
2022-09-11T15:50:06.323Z,2.60
2022-09-11T15:52:36.654Z,2.50
2022-09-11T15:55:07.897Z,2.40
2022-09-11T15:57:36.888Z,2.40
2022-09-11T16:00:05.289Z,2.60
2022-09-11T16:02:33.128Z,2.50
2022-09-11T16:05:01.773Z,2.70
2022-09-11T16:07:30.673Z,2.70
2022-09-11T16:13:14.803Z,2.10
2022-09-11T16:16:12.095Z,2.80
2022-09-11T16:18:42.875Z,2.60
2022-09-11T16:21:36.016Z,2.40
2022-09-11T16:24:08.030Z,3.10
2022-09-11T16:26:38.386Z,2.80
2022-09-11T16:29:12.399Z,3.00
2022-09-11T16:31:40.310Z,2.90
2022-09-11T16:34:11.848Z,3.00
2022-09-11T16:36:48.920Z,3.10
2022-09-11T16:39:25.232Z,2.80
2022-09-11T16:42:18.957Z,2.70
2022-09-11T16:45:40.753Z,2.60
2022-09-11T16:53:19.377Z,3.40
2022-09-11T16:56:27.677Z,2.80
2022-09-11T16:59:44.422Z,2.90
2022-09-11T17:02:12.319Z,4.10
2022-09-11T17:04:40.128Z,5.00
2022-09-11T17:07:07.907Z,5.40
2022-09-11T17:09:35.668Z,5.00
2022-09-11T17:12:03.787Z,3.20
2022-09-11T17:14:32.760Z,2.80
2022-09-11T17:17:03.281Z,2.90
2022-09-11T17:19:38.905Z,3.10
2022-09-11T17:22:09.001Z,3.40
2022-09-11T17:25:38.345Z,3.00
2022-09-11T17:29:01.638Z,3.20
2022-09-11T17:31:44.712Z,2.80
2022-09-11T17:34:16.402Z,2.50
2022-09-11T17:36:51.727Z,3.10
2022-09-11T17:39:19.960Z,3.40
2022-09-11T17:41:51.678Z,3.20
2022-09-11T17:44:27.748Z,3.10
2022-09-11T17:47:01.069Z,3.20
2022-09-11T17:49:32.383Z,3.50
2022-09-11T17:52:01.060Z,3.40
2022-09-11T17:54:29.084Z,3.70
2022-09-11T17:56:59.688Z,4.80
2022-09-11T17:59:32.120Z,4.20
2022-09-11T18:02:03.609Z,3.60
2022-09-11T18:04:34.756Z,3.70
2022-09-11T18:07:04.998Z,3.40
2022-09-11T18:09:33.351Z,3.40
2022-09-11T18:12:05.144Z,3.90
2022-09-11T18:14:38.259Z,3.50
2022-09-11T18:17:06.972Z,4.30
2022-09-11T18:19:36.842Z,3.80
2022-09-11T18:22:09.832Z,4.00
2022-09-11T18:24:41.684Z,3.90
2022-09-11T18:28:05.450Z,3.70
2022-09-11T18:31:02.933Z,3.70
2022-09-11T18:33:51.424Z,3.30
2022-09-11T18:36:34.320Z,4.00
2022-09-11T18:39:04.246Z,4.10
2022-09-11T18:41:35.610Z,4.00
2022-09-11T18:44:36.991Z,3.70
2022-09-11T18:47:08.806Z,4.10
2022-09-11T18:49:47.148Z,3.90
2022-09-11T18:52:21.627Z,4.10
2022-09-11T18:55:06.610Z,3.50
2022-09-11T18:57:40.136Z,3.90
2022-09-11T19:00:21.177Z,3.80
2022-09-11T19:02:59.685Z,4.00
2022-09-11T19:05:29.480Z,3.70
2022-09-11T19:08:00.207Z,3.30
2022-09-11T19:10:32.250Z,3.40
2022-09-11T19:13:02.937Z,2.90
2022-09-11T19:15:31.553Z,3.40
2022-09-11T19:18:08.583Z,3.70
2022-09-11T19:20:39.843Z,3.50
2022-09-11T19:23:09.473Z,3.70
2022-09-11T19:25:40.749Z,3.50
2022-09-11T19:28:08.872Z,3.90
2022-09-11T19:30:41.225Z,3.90
2022-09-11T19:33:11.921Z,3.40
2022-09-11T19:36:03.838Z,3.40
2022-09-11T19:38:37.250Z,3.20
2022-09-11T19:41:14.353Z,3.70
2022-09-11T19:44:02.014Z,3.50
2022-09-11T19:46:41.413Z,3.50
2022-09-11T19:49:11.336Z,3.50
2022-09-11T19:51:42.816Z,3.70
2022-09-11T19:54:15.954Z,3.60
2022-09-11T19:56:45.296Z,3.70
2022-09-11T19:59:16.414Z,3.60
2022-09-11T20:01:45.271Z,4.10
2022-09-11T20:04:15.656Z,3.90
2022-09-11T20:09:31.393Z,3.90
2022-09-11T20:12:01.397Z,4.20
2022-09-11T20:14:31.173Z,3.70
2022-09-11T20:17:01.125Z,3.40
2022-09-11T20:19:28.989Z,3.40
2022-09-11T20:21:57.027Z,3.40
2022-09-11T20:24:24.825Z,4.10
2022-09-11T20:26:53.826Z,3.30
2022-09-11T20:29:21.704Z,3.70
2022-09-11T20:31:51.230Z,3.40
2022-09-11T20:34:20.280Z,3.50
2022-09-11T20:36:48.377Z,3.20
2022-09-11T20:39:16.826Z,3.70
2022-09-11T20:41:44.823Z,3.00
2022-09-11T20:44:12.735Z,4.00
2022-09-11T20:46:41.317Z,3.50
2022-09-11T20:49:10.885Z,3.70
2022-09-11T20:51:43.256Z,3.70
2022-09-11T20:54:14.578Z,3.70
2022-09-11T20:56:44.649Z,3.80
2022-09-11T20:59:12.733Z,3.70
2022-09-11T21:01:40.489Z,3.30
2022-09-11T21:04:08.226Z,3.30
2022-09-11T21:06:36.005Z,3.90
2022-09-11T21:09:09.866Z,3.30
2022-09-11T21:11:40.372Z,3.60
2022-09-11T21:14:15.073Z,3.60
2022-09-11T21:16:43.126Z,3.30
2022-09-11T21:19:11.032Z,3.70
2022-09-11T21:21:42.541Z,3.30
2022-09-11T21:24:13.000Z,3.90
2022-09-11T21:26:42.450Z,3.70
2022-09-11T21:29:12.930Z,3.50
2022-09-11T21:31:42.471Z,3.40
2022-09-11T21:34:10.799Z,3.10
2022-09-11T21:36:38.656Z,3.30
2022-09-11T21:39:06.556Z,3.50
2022-09-11T21:41:34.678Z,3.30
2022-09-11T21:44:02.873Z,3.60
2022-09-11T21:46:30.561Z,3.40
2022-09-11T21:48:58.209Z,3.10
2022-09-11T21:51:25.937Z,3.90
2022-09-11T21:53:59.067Z,3.30
2022-09-11T21:56:32.274Z,3.20
2022-09-11T21:59:00.667Z,3.80
2022-09-11T22:01:29.858Z,3.80
2022-09-11T22:03:58.609Z,3.20
2022-09-11T22:06:27.025Z,3.50
2022-09-11T22:08:56.293Z,3.10
2022-09-11T22:11:26.011Z,4.50
2022-09-11T22:13:54.252Z,3.70
2022-09-11T22:16:23.120Z,3.10
2022-09-11T22:18:53.510Z,3.20
2022-09-11T22:21:21.372Z,4.20
2022-09-11T22:23:49.677Z,3.80
2022-09-11T22:26:20.058Z,3.90
2022-09-11T22:28:48.094Z,3.10
2022-09-11T22:31:20.822Z,3.40
2022-09-11T22:33:48.861Z,3.10
2022-09-11T22:36:26.266Z,3.40
2022-09-11T22:38:55.066Z,3.50
2022-09-11T22:41:23.474Z,3.60
2022-09-11T22:43:51.438Z,3.70
2022-09-11T22:46:20.950Z,3.90
2022-09-11T22:48:49.159Z,3.90
2022-09-11T22:51:17.130Z,4.00
2022-09-11T22:53:45.096Z,4.00
2022-09-11T22:56:13.959Z,3.70
2022-09-11T22:58:42.294Z,3.70
2022-09-11T23:01:14.116Z,3.70
2022-09-11T23:03:42.198Z,3.60
2022-09-11T23:06:29.896Z,3.80
2022-09-11T23:08:57.712Z,4.20
2022-09-11T23:11:25.814Z,3.40
2022-09-11T23:13:53.521Z,3.90
2022-09-11T23:16:24.291Z,4.00
2022-09-11T23:19:03.232Z,3.90
2022-09-11T23:21:35.702Z,4.00
2022-09-11T23:24:06.157Z,3.50
2022-09-11T23:26:34.026Z,3.80
2022-09-11T23:29:01.815Z,3.80
2022-09-11T23:31:32.524Z,4.30
2022-09-11T23:34:08.719Z,3.90
2022-09-11T23:36:36.788Z,3.90
2022-09-11T23:39:04.702Z,4.40
2022-09-11T23:41:32.624Z,4.00
2022-09-11T23:44:00.357Z,3.60
2022-09-11T23:46:28.656Z,4.50
2022-09-11T23:48:56.525Z,4.20
2022-09-11T23:51:24.197Z,4.10
2022-09-11T23:53:52.029Z,4.40
2022-09-11T23:56:22.365Z,3.90
2022-09-11T23:58:50.957Z,4.00
